sensor_id;sensor_type;location;lat;lon;timestamp;temperature;humidity
584;HTU21D;27024;54.068;12.116;2023-05-07T00:01:52;8.19;113.35
584;HTU21D;27024;54.068;12.116;2023-05-07T00:04:19;8.16;113.64
584;HTU21D;27024;54.068;12.116;2023-05-07T00:06:47;8.26;113.09
584;HTU21D;27024;54.068;12.116;2023-05-07T00:09:14;8.22;113.00
584;HTU21D;27024;54.068;12.116;2023-05-07T00:11:43;8.24;113.12
584;HTU21D;27024;54.068;12.116;2023-05-07T00:14:10;8.28;112.86
584;HTU21D;27024;54.068;12.116;2023-05-07T00:16:38;8.31;112.45
584;HTU21D;27024;54.068;12.116;2023-05-07T00:19:05;8.29;112.53
584;HTU21D;27024;54.068;12.116;2023-05-07T00:21:32;8.30;112.55
584;HTU21D;27024;54.068;12.116;2023-05-07T00:23:59;8.32;112.20
584;HTU21D;27024;54.068;12.116;2023-05-07T00:26:26;8.28;112.50
584;HTU21D;27024;54.068;12.116;2023-05-07T00:28:54;8.33;112.27
584;HTU21D;27024;54.068;12.116;2023-05-07T00:31:21;8.38;112.03
584;HTU21D;27024;54.068;12.116;2023-05-07T00:33:48;8.33;112.23
584;HTU21D;27024;54.068;12.116;2023-05-07T00:36:15;8.27;112.37
584;HTU21D;27024;54.068;12.116;2023-05-07T00:38:42;8.28;112.38
584;HTU21D;27024;54.068;12.116;2023-05-07T00:41:09;8.26;112.35
584;HTU21D;27024;54.068;12.116;2023-05-07T00:43:37;8.24;112.52
584;HTU21D;27024;54.068;12.116;2023-05-07T00:46:04;8.29;112.29
584;HTU21D;27024;54.068;12.116;2023-05-07T00:48:32;8.23;112.59
584;HTU21D;27024;54.068;12.116;2023-05-07T00:51:00;8.21;112.63
584;HTU21D;27024;54.068;12.116;2023-05-07T00:53:31;8.17;112.97
584;HTU21D;27024;54.068;12.116;2023-05-07T00:56:00;8.20;112.92
584;HTU21D;27024;54.068;12.116;2023-05-07T00:58:29;8.14;113.34
584;HTU21D;27024;54.068;12.116;2023-05-07T01:00:57;8.18;113.22
584;HTU21D;27024;54.068;12.116;2023-05-07T01:03:25;8.15;113.45
584;HTU21D;27024;54.068;12.116;2023-05-07T01:05:53;8.15;113.37
584;HTU21D;27024;54.068;12.116;2023-05-07T01:08:22;8.21;113.23
584;HTU21D;27024;54.068;12.116;2023-05-07T01:10:49;8.13;113.58
584;HTU21D;27024;54.068;12.116;2023-05-07T01:13:17;8.16;113.51
584;HTU21D;27024;54.068;12.116;2023-05-07T01:15:45;8.07;113.63
584;HTU21D;27024;54.068;12.116;2023-05-07T01:18:13;8.14;113.71
584;HTU21D;27024;54.068;12.116;2023-05-07T01:20:40;8.13;113.64
584;HTU21D;27024;54.068;12.116;2023-05-07T01:23:08;8.09;113.69
584;HTU21D;27024;54.068;12.116;2023-05-07T01:25:37;8.08;113.91
584;HTU21D;27024;54.068;12.116;2023-05-07T01:28:04;8.03;114.12
584;HTU21D;27024;54.068;12.116;2023-05-07T01:30:34;8.12;113.83
584;HTU21D;27024;54.068;12.116;2023-05-07T01:35:35;8.08;113.76
584;HTU21D;27024;54.068;12.116;2023-05-07T01:38:03;8.00;114.10
584;HTU21D;27024;54.068;12.116;2023-05-07T01:40:33;7.97;114.25
584;HTU21D;27024;54.068;12.116;2023-05-07T01:43:02;8.00;114.06
584;HTU21D;27024;54.068;12.116;2023-05-07T01:45:30;8.00;114.03
584;HTU21D;27024;54.068;12.116;2023-05-07T01:47:58;7.96;114.28
584;HTU21D;27024;54.068;12.116;2023-05-07T01:50:27;7.86;114.73
584;HTU21D;27024;54.068;12.116;2023-05-07T01:52:54;7.88;114.62
584;HTU21D;27024;54.068;12.116;2023-05-07T01:55:21;7.89;114.45
584;HTU21D;27024;54.068;12.116;2023-05-07T01:57:49;7.85;114.64
584;HTU21D;27024;54.068;12.116;2023-05-07T02:00:17;7.85;114.56
584;HTU21D;27024;54.068;12.116;2023-05-07T02:02:44;7.76;114.74
584;HTU21D;27024;54.068;12.116;2023-05-07T02:05:11;7.75;114.79
584;HTU21D;27024;54.068;12.116;2023-05-07T02:07:39;7.70;114.74
584;HTU21D;27024;54.068;12.116;2023-05-07T02:10:06;7.65;114.90
584;HTU21D;27024;54.068;12.116;2023-05-07T02:12:34;7.57;115.68
584;HTU21D;27024;54.068;12.116;2023-05-07T02:15:01;7.63;115.12
584;HTU21D;27024;54.068;12.116;2023-05-07T02:17:29;7.61;115.02
584;HTU21D;27024;54.068;12.116;2023-05-07T02:19:58;7.60;114.93
584;HTU21D;27024;54.068;12.116;2023-05-07T02:22:26;7.56;115.09
584;HTU21D;27024;54.068;12.116;2023-05-07T02:24:53;7.43;115.89
584;HTU21D;27024;54.068;12.116;2023-05-07T02:27:20;7.41;115.69
584;HTU21D;27024;54.068;12.116;2023-05-07T02:29:47;7.40;116.01
584;HTU21D;27024;54.068;12.116;2023-05-07T02:32:14;7.42;115.21
584;HTU21D;27024;54.068;12.116;2023-05-07T02:34:41;7.35;115.76
584;HTU21D;27024;54.068;12.116;2023-05-07T02:37:08;7.32;115.77
584;HTU21D;27024;54.068;12.116;2023-05-07T02:39:35;7.38;115.41
584;HTU21D;27024;54.068;12.116;2023-05-07T02:42:03;7.20;116.01
584;HTU21D;27024;54.068;12.116;2023-05-07T02:44:30;7.22;116.44
584;HTU21D;27024;54.068;12.116;2023-05-07T02:46:58;7.15;116.56
584;HTU21D;27024;54.068;12.116;2023-05-07T02:49:25;7.25;116.20
584;HTU21D;27024;54.068;12.116;2023-05-07T02:51:52;7.22;116.29
584;HTU21D;27024;54.068;12.116;2023-05-07T02:54:19;7.28;115.98
584;HTU21D;27024;54.068;12.116;2023-05-07T02:56:46;7.34;115.58
584;HTU21D;27024;54.068;12.116;2023-05-07T02:59:13;7.35;115.32
584;HTU21D;27024;54.068;12.116;2023-05-07T03:01:40;7.35;115.09
584;HTU21D;27024;54.068;12.116;2023-05-07T03:04:11;7.39;115.20
584;HTU21D;27024;54.068;12.116;2023-05-07T03:06:38;7.39;115.46
584;HTU21D;27024;54.068;12.116;2023-05-07T03:09:05;7.37;115.52
584;HTU21D;27024;54.068;12.116;2023-05-07T03:11:32;7.44;114.84
584;HTU21D;27024;54.068;12.116;2023-05-07T03:13:59;7.48;114.56
584;HTU21D;27024;54.068;12.116;2023-05-07T03:16:27;7.50;114.41
584;HTU21D;27024;54.068;12.116;2023-05-07T03:18:54;7.56;114.43
584;HTU21D;27024;54.068;12.116;2023-05-07T03:21:21;7.56;114.06
584;HTU21D;27024;54.068;12.116;2023-05-07T03:23:49;7.48;114.63
584;HTU21D;27024;54.068;12.116;2023-05-07T03:26:16;7.53;114.34
584;HTU21D;27024;54.068;12.116;2023-05-07T03:28:43;7.56;114.03
584;HTU21D;27024;54.068;12.116;2023-05-07T03:31:10;7.64;113.84
584;HTU21D;27024;54.068;12.116;2023-05-07T03:33:52;7.67;113.29
584;HTU21D;27024;54.068;12.116;2023-05-07T03:36:20;7.67;113.54
584;HTU21D;27024;54.068;12.116;2023-05-07T03:38:48;7.55;114.11
584;HTU21D;27024;54.068;12.116;2023-05-07T03:41:15;7.56;114.33
584;HTU21D;27024;54.068;12.116;2023-05-07T03:43:43;7.63;113.76
584;HTU21D;27024;54.068;12.116;2023-05-07T03:46:10;7.65;113.61
584;HTU21D;27024;54.068;12.116;2023-05-07T03:48:37;7.64;113.64
584;HTU21D;27024;54.068;12.116;2023-05-07T03:51:04;7.59;114.08
584;HTU21D;27024;54.068;12.116;2023-05-07T03:53:31;7.57;114.32
584;HTU21D;27024;54.068;12.116;2023-05-07T03:55:58;7.58;114.23
584;HTU21D;27024;54.068;12.116;2023-05-07T03:58:26;7.61;114.28
584;HTU21D;27024;54.068;12.116;2023-05-07T04:00:53;7.61;114.03
584;HTU21D;27024;54.068;12.116;2023-05-07T04:03:20;7.50;114.43
584;HTU21D;27024;54.068;12.116;2023-05-07T04:05:48;7.45;114.94
584;HTU21D;27024;54.068;12.116;2023-05-07T04:08:15;7.48;114.89
584;HTU21D;27024;54.068;12.116;2023-05-07T04:10:42;7.52;114.80
584;HTU21D;27024;54.068;12.116;2023-05-07T04:13:09;7.53;114.56
584;HTU21D;27024;54.068;12.116;2023-05-07T04:15:36;7.59;114.50
584;HTU21D;27024;54.068;12.116;2023-05-07T04:18:03;7.57;114.61
584;HTU21D;27024;54.068;12.116;2023-05-07T04:20:30;7.61;114.51
584;HTU21D;27024;54.068;12.116;2023-05-07T04:23:01;7.65;114.29
584;HTU21D;27024;54.068;12.116;2023-05-07T04:25:28;7.65;114.29
584;HTU21D;27024;54.068;12.116;2023-05-07T04:27:56;7.63;114.34
584;HTU21D;27024;54.068;12.116;2023-05-07T04:30:24;7.68;114.15
584;HTU21D;27024;54.068;12.116;2023-05-07T04:32:52;7.71;114.12
584;HTU21D;27024;54.068;12.116;2023-05-07T04:35:20;7.75;113.87
584;HTU21D;27024;54.068;12.116;2023-05-07T04:37:46;7.76;113.90
584;HTU21D;27024;54.068;12.116;2023-05-07T04:40:13;7.83;113.67
584;HTU21D;27024;54.068;12.116;2023-05-07T04:42:40;7.99;112.53
584;HTU21D;27024;54.068;12.116;2023-05-07T04:45:08;8.15;111.54
584;HTU21D;27024;54.068;12.116;2023-05-07T04:47:37;8.17;111.00
584;HTU21D;27024;54.068;12.116;2023-05-07T04:50:06;8.32;110.29
584;HTU21D;27024;54.068;12.116;2023-05-07T04:52:33;8.33;109.98
584;HTU21D;27024;54.068;12.116;2023-05-07T04:55:00;8.53;109.05
584;HTU21D;27024;54.068;12.116;2023-05-07T04:57:28;8.50;108.94
584;HTU21D;27024;54.068;12.116;2023-05-07T04:59:55;8.63;108.04
584;HTU21D;27024;54.068;12.116;2023-05-07T05:02:22;8.74;107.52
584;HTU21D;27024;54.068;12.116;2023-05-07T05:04:49;8.83;106.66
584;HTU21D;27024;54.068;12.116;2023-05-07T05:07:16;9.10;105.48
584;HTU21D;27024;54.068;12.116;2023-05-07T05:09:43;9.24;105.13
584;HTU21D;27024;54.068;12.116;2023-05-07T05:12:11;9.10;105.24
584;HTU21D;27024;54.068;12.116;2023-05-07T05:14:38;9.49;103.35
584;HTU21D;27024;54.068;12.116;2023-05-07T05:17:05;9.34;103.23
584;HTU21D;27024;54.068;12.116;2023-05-07T05:19:34;9.61;102.60
584;HTU21D;27024;54.068;12.116;2023-05-07T05:22:01;9.80;101.21
584;HTU21D;27024;54.068;12.116;2023-05-07T05:24:30;9.81;100.51
584;HTU21D;27024;54.068;12.116;2023-05-07T05:26:58;9.62;101.77
584;HTU21D;27024;54.068;12.116;2023-05-07T05:29:28;9.84;100.30
584;HTU21D;27024;54.068;12.116;2023-05-07T05:31:55;10.00;99.84
584;HTU21D;27024;54.068;12.116;2023-05-07T05:34:23;10.09;98.80
584;HTU21D;27024;54.068;12.116;2023-05-07T05:36:50;10.16;98.58
584;HTU21D;27024;54.068;12.116;2023-05-07T05:39:17;10.31;97.53
584;HTU21D;27024;54.068;12.116;2023-05-07T05:41:44;10.10;98.45
584;HTU21D;27024;54.068;12.116;2023-05-07T05:44:11;10.36;97.03
584;HTU21D;27024;54.068;12.116;2023-05-07T05:46:38;10.59;96.11
584;HTU21D;27024;54.068;12.116;2023-05-07T05:49:05;10.58;95.65
584;HTU21D;27024;54.068;12.116;2023-05-07T05:51:32;10.73;95.04
584;HTU21D;27024;54.068;12.116;2023-05-07T05:53:59;10.86;94.31
584;HTU21D;27024;54.068;12.116;2023-05-07T05:56:26;11.04;93.78
584;HTU21D;27024;54.068;12.116;2023-05-07T05:58:53;10.97;93.04
584;HTU21D;27024;54.068;12.116;2023-05-07T06:01:21;11.24;91.37
584;HTU21D;27024;54.068;12.116;2023-05-07T06:03:48;11.24;91.56
584;HTU21D;27024;54.068;12.116;2023-05-07T06:06:15;11.41;90.52
584;HTU21D;27024;54.068;12.116;2023-05-07T06:08:43;11.52;91.08
584;HTU21D;27024;54.068;12.116;2023-05-07T06:11:10;11.40;92.19
584;HTU21D;27024;54.068;12.116;2023-05-07T06:13:37;11.14;92.58
584;HTU21D;27024;54.068;12.116;2023-05-07T06:16:05;11.55;91.79
584;HTU21D;27024;54.068;12.116;2023-05-07T06:18:32;12.06;88.64
584;HTU21D;27024;54.068;12.116;2023-05-07T06:20:59;12.26;85.74
584;HTU21D;27024;54.068;12.116;2023-05-07T06:23:26;12.07;86.32
584;HTU21D;27024;54.068;12.116;2023-05-07T06:25:54;11.79;87.90
584;HTU21D;27024;54.068;12.116;2023-05-07T06:28:20;12.15;86.12
584;HTU21D;27024;54.068;12.116;2023-05-07T06:30:48;12.45;84.16
584;HTU21D;27024;54.068;12.116;2023-05-07T06:33:16;13.73;75.25
584;HTU21D;27024;54.068;12.116;2023-05-07T06:35:44;14.30;71.17
584;HTU21D;27024;54.068;12.116;2023-05-07T06:38:11;14.05;71.11
584;HTU21D;27024;54.068;12.116;2023-05-07T06:40:39;13.43;76.37
584;HTU21D;27024;54.068;12.116;2023-05-07T06:43:06;13.01;78.69
584;HTU21D;27024;54.068;12.116;2023-05-07T06:45:33;12.99;79.96
584;HTU21D;27024;54.068;12.116;2023-05-07T06:48:00;13.47;77.40
584;HTU21D;27024;54.068;12.116;2023-05-07T06:50:27;13.85;73.83
584;HTU21D;27024;54.068;12.116;2023-05-07T06:52:54;13.54;72.95
584;HTU21D;27024;54.068;12.116;2023-05-07T06:55:21;14.45;70.71
584;HTU21D;27024;54.068;12.116;2023-05-07T06:57:49;14.85;67.47
584;HTU21D;27024;54.068;12.116;2023-05-07T07:00:16;15.06;68.56
584;HTU21D;27024;54.068;12.116;2023-05-07T07:02:43;15.31;65.52
584;HTU21D;27024;54.068;12.116;2023-05-07T07:05:11;15.25;65.01
584;HTU21D;27024;54.068;12.116;2023-05-07T07:07:38;15.25;63.31
584;HTU21D;27024;54.068;12.116;2023-05-07T07:10:06;14.65;67.72
584;HTU21D;27024;54.068;12.116;2023-05-07T07:12:34;14.43;66.53
584;HTU21D;27024;54.068;12.116;2023-05-07T07:15:01;15.03;65.01
584;HTU21D;27024;54.068;12.116;2023-05-07T07:17:29;15.46;64.96
584;HTU21D;27024;54.068;12.116;2023-05-07T07:19:56;15.45;62.23
584;HTU21D;27024;54.068;12.116;2023-05-07T07:22:23;15.29;62.38
584;HTU21D;27024;54.068;12.116;2023-05-07T07:24:51;15.44;60.80
584;HTU21D;27024;54.068;12.116;2023-05-07T07:27:18;15.46;61.79
584;HTU21D;27024;54.068;12.116;2023-05-07T07:29:45;15.59;61.15
584;HTU21D;27024;54.068;12.116;2023-05-07T07:32:13;15.07;60.27
584;HTU21D;27024;54.068;12.116;2023-05-07T07:34:40;15.04;61.97
584;HTU21D;27024;54.068;12.116;2023-05-07T07:37:07;14.95;60.77
584;HTU21D;27024;54.068;12.116;2023-05-07T07:39:35;14.74;61.83
584;HTU21D;27024;54.068;12.116;2023-05-07T07:42:04;14.66;62.09
584;HTU21D;27024;54.068;12.116;2023-05-07T07:44:32;14.82;61.63
584;HTU21D;27024;54.068;12.116;2023-05-07T07:46:59;14.67;61.73
584;HTU21D;27024;54.068;12.116;2023-05-07T07:49:27;14.00;63.47
584;HTU21D;27024;54.068;12.116;2023-05-07T07:51:54;14.22;63.74
584;HTU21D;27024;54.068;12.116;2023-05-07T07:54:21;14.23;64.41
584;HTU21D;27024;54.068;12.116;2023-05-07T07:56:48;14.33;63.44
584;HTU21D;27024;54.068;12.116;2023-05-07T07:59:16;14.37;60.70
584;HTU21D;27024;54.068;12.116;2023-05-07T08:01:45;14.21;64.00
584;HTU21D;27024;54.068;12.116;2023-05-07T08:04:15;13.90;61.02
584;HTU21D;27024;54.068;12.116;2023-05-07T08:06:42;13.84;61.22
584;HTU21D;27024;54.068;12.116;2023-05-07T08:09:09;13.98;63.22
584;HTU21D;27024;54.068;12.116;2023-05-07T08:11:36;14.21;60.86
584;HTU21D;27024;54.068;12.116;2023-05-07T08:14:03;14.04;60.69
584;HTU21D;27024;54.068;12.116;2023-05-07T08:16:32;14.38;60.59
584;HTU21D;27024;54.068;12.116;2023-05-07T08:18:59;14.52;58.33
584;HTU21D;27024;54.068;12.116;2023-05-07T08:21:26;14.65;56.51
584;HTU21D;27024;54.068;12.116;2023-05-07T08:23:54;14.15;58.74
584;HTU21D;27024;54.068;12.116;2023-05-07T08:26:21;14.07;56.41
584;HTU21D;27024;54.068;12.116;2023-05-07T08:28:48;14.47;56.50
584;HTU21D;27024;54.068;12.116;2023-05-07T08:31:16;14.38;55.49
584;HTU21D;27024;54.068;12.116;2023-05-07T08:33:43;14.42;55.04
584;HTU21D;27024;54.068;12.116;2023-05-07T08:36:10;14.58;54.10
584;HTU21D;27024;54.068;12.116;2023-05-07T08:38:38;14.53;55.58
584;HTU21D;27024;54.068;12.116;2023-05-07T08:41:10;14.34;56.01
584;HTU21D;27024;54.068;12.116;2023-05-07T08:43:38;14.70;56.82
584;HTU21D;27024;54.068;12.116;2023-05-07T08:46:09;14.93;55.95
584;HTU21D;27024;54.068;12.116;2023-05-07T08:48:38;14.77;51.75
584;HTU21D;27024;54.068;12.116;2023-05-07T08:51:08;14.72;54.05
584;HTU21D;27024;54.068;12.116;2023-05-07T08:53:36;15.00;52.96
584;HTU21D;27024;54.068;12.116;2023-05-07T08:56:06;14.87;51.72
584;HTU21D;27024;54.068;12.116;2023-05-07T08:58:35;14.86;52.78
584;HTU21D;27024;54.068;12.116;2023-05-07T09:01:10;15.27;51.46
584;HTU21D;27024;54.068;12.116;2023-05-07T09:03:40;15.76;51.67
584;HTU21D;27024;54.068;12.116;2023-05-07T09:06:07;15.77;49.41
584;HTU21D;27024;54.068;12.116;2023-05-07T09:08:36;15.81;47.76
584;HTU21D;27024;54.068;12.116;2023-05-07T09:11:03;16.12;46.51
584;HTU21D;27024;54.068;12.116;2023-05-07T09:13:30;16.17;45.91
584;HTU21D;27024;54.068;12.116;2023-05-07T09:16:10;16.46;46.19
584;HTU21D;27024;54.068;12.116;2023-05-07T09:18:44;16.48;45.79
584;HTU21D;27024;54.068;12.116;2023-05-07T09:21:15;16.64;46.83
584;HTU21D;27024;54.068;12.116;2023-05-07T09:23:43;17.05;47.18
584;HTU21D;27024;54.068;12.116;2023-05-07T09:26:10;17.11;47.09
584;HTU21D;27024;54.068;12.116;2023-05-07T09:28:40;17.35;44.96
584;HTU21D;27024;54.068;12.116;2023-05-07T09:31:09;17.74;44.31
584;HTU21D;27024;54.068;12.116;2023-05-07T09:33:38;17.70;45.43
584;HTU21D;27024;54.068;12.116;2023-05-07T09:36:06;17.66;46.25
584;HTU21D;27024;54.068;12.116;2023-05-07T09:38:36;17.19;46.67
584;HTU21D;27024;54.068;12.116;2023-05-07T09:41:11;17.14;45.94
584;HTU21D;27024;54.068;12.116;2023-05-07T09:43:39;17.41;44.90
584;HTU21D;27024;54.068;12.116;2023-05-07T09:46:14;18.23;45.70
584;HTU21D;27024;54.068;12.116;2023-05-07T09:48:44;18.84;43.81
584;HTU21D;27024;54.068;12.116;2023-05-07T09:51:18;18.40;42.93
584;HTU21D;27024;54.068;12.116;2023-05-07T09:53:50;18.21;41.08
584;HTU21D;27024;54.068;12.116;2023-05-07T09:56:19;18.84;41.79
584;HTU21D;27024;54.068;12.116;2023-05-07T09:58:48;18.63;40.33
584;HTU21D;27024;54.068;12.116;2023-05-07T10:01:17;18.88;41.21
584;HTU21D;27024;54.068;12.116;2023-05-07T10:03:46;19.36;41.74
584;HTU21D;27024;54.068;12.116;2023-05-07T10:06:16;18.96;40.34
584;HTU21D;27024;54.068;12.116;2023-05-07T10:08:45;19.76;39.02
584;HTU21D;27024;54.068;12.116;2023-05-07T10:11:13;19.29;39.46
584;HTU21D;27024;54.068;12.116;2023-05-07T10:13:43;18.89;38.53
584;HTU21D;27024;54.068;12.116;2023-05-07T10:16:10;19.36;38.76
584;HTU21D;27024;54.068;12.116;2023-05-07T10:18:38;19.65;39.33
584;HTU21D;27024;54.068;12.116;2023-05-07T10:21:20;19.97;38.43
584;HTU21D;27024;54.068;12.116;2023-05-07T10:23:50;20.10;38.62
584;HTU21D;27024;54.068;12.116;2023-05-07T10:26:18;19.84;37.08
584;HTU21D;27024;54.068;12.116;2023-05-07T10:28:50;20.11;36.13
584;HTU21D;27024;54.068;12.116;2023-05-07T10:33:52;19.96;37.54
584;HTU21D;27024;54.068;12.116;2023-05-07T10:36:21;20.11;36.26
584;HTU21D;27024;54.068;12.116;2023-05-07T10:38:49;19.58;35.18
584;HTU21D;27024;54.068;12.116;2023-05-07T10:41:17;19.83;35.14
584;HTU21D;27024;54.068;12.116;2023-05-07T10:43:45;19.36;35.78
584;HTU21D;27024;54.068;12.116;2023-05-07T10:46:20;20.30;36.38
584;HTU21D;27024;54.068;12.116;2023-05-07T10:51:28;19.91;36.34
584;HTU21D;27024;54.068;12.116;2023-05-07T10:56:42;20.30;36.26
584;HTU21D;27024;54.068;12.116;2023-05-07T10:59:30;19.76;35.91
584;HTU21D;27024;54.068;12.116;2023-05-07T11:02:03;20.63;34.43
584;HTU21D;27024;54.068;12.116;2023-05-07T11:04:31;20.90;34.92
584;HTU21D;27024;54.068;12.116;2023-05-07T11:17:33;20.62;34.18
584;HTU21D;27024;54.068;12.116;2023-05-07T11:20:03;20.90;35.30
584;HTU21D;27024;54.068;12.116;2023-05-07T11:25:03;21.07;34.88
584;HTU21D;27024;54.068;12.116;2023-05-07T11:27:30;21.08;33.17
584;HTU21D;27024;54.068;12.116;2023-05-07T11:29:58;20.93;32.06
584;HTU21D;27024;54.068;12.116;2023-05-07T11:32:30;21.13;33.81
584;HTU21D;27024;54.068;12.116;2023-05-07T11:34:59;21.27;32.64
584;HTU21D;27024;54.068;12.116;2023-05-07T11:37:27;20.88;33.35
584;HTU21D;27024;54.068;12.116;2023-05-07T11:40:07;21.08;32.31
584;HTU21D;27024;54.068;12.116;2023-05-07T11:42:37;21.33;32.35
584;HTU21D;27024;54.068;12.116;2023-05-07T11:45:07;20.83;33.47
584;HTU21D;27024;54.068;12.116;2023-05-07T11:47:35;21.87;32.07
584;HTU21D;27024;54.068;12.116;2023-05-07T11:50:05;21.37;31.05
584;HTU21D;27024;54.068;12.116;2023-05-07T11:52:33;21.43;31.96
584;HTU21D;27024;54.068;12.116;2023-05-07T11:55:01;21.10;32.48
584;HTU21D;27024;54.068;12.116;2023-05-07T11:57:29;21.06;32.71
584;HTU21D;27024;54.068;12.116;2023-05-07T11:59:57;20.71;33.63
584;HTU21D;27024;54.068;12.116;2023-05-07T12:02:25;20.94;32.63
584;HTU21D;27024;54.068;12.116;2023-05-07T12:04:54;20.69;32.70
584;HTU21D;27024;54.068;12.116;2023-05-07T12:07:23;20.57;34.22
584;HTU21D;27024;54.068;12.116;2023-05-07T12:09:51;20.93;33.79
584;HTU21D;27024;54.068;12.116;2023-05-07T12:12:19;21.27;33.42
584;HTU21D;27024;54.068;12.116;2023-05-07T12:14:46;21.67;31.89
584;HTU21D;27024;54.068;12.116;2023-05-07T12:17:14;22.11;32.32
584;HTU21D;27024;54.068;12.116;2023-05-07T12:19:43;21.74;31.37
584;HTU21D;27024;54.068;12.116;2023-05-07T12:22:12;21.53;31.25
584;HTU21D;27024;54.068;12.116;2023-05-07T12:24:50;22.06;31.26
584;HTU21D;27024;54.068;12.116;2023-05-07T12:27:24;21.00;32.70
584;HTU21D;27024;54.068;12.116;2023-05-07T12:29:51;21.83;31.45
584;HTU21D;27024;54.068;12.116;2023-05-07T12:32:21;21.96;31.63
584;HTU21D;27024;54.068;12.116;2023-05-07T12:34:52;21.78;31.39
584;HTU21D;27024;54.068;12.116;2023-05-07T12:37:24;21.27;30.32
584;HTU21D;27024;54.068;12.116;2023-05-07T12:40:09;21.72;31.07
584;HTU21D;27024;54.068;12.116;2023-05-07T12:42:37;21.36;31.22
584;HTU21D;27024;54.068;12.116;2023-05-07T12:45:12;22.22;31.64
584;HTU21D;27024;54.068;12.116;2023-05-07T12:47:47;22.14;29.76
584;HTU21D;27024;54.068;12.116;2023-05-07T12:50:15;22.17;31.51
584;HTU21D;27024;54.068;12.116;2023-05-07T12:52:52;21.46;30.38
584;HTU21D;27024;54.068;12.116;2023-05-07T12:55:19;21.97;30.35
584;HTU21D;27024;54.068;12.116;2023-05-07T12:57:49;21.98;30.36
584;HTU21D;27024;54.068;12.116;2023-05-07T13:00:17;22.48;29.71
584;HTU21D;27024;54.068;12.116;2023-05-07T13:02:45;22.25;29.71
584;HTU21D;27024;54.068;12.116;2023-05-07T13:05:13;22.28;29.70
584;HTU21D;27024;54.068;12.116;2023-05-07T13:07:41;22.24;28.99
584;HTU21D;27024;54.068;12.116;2023-05-07T13:10:19;22.55;28.61
584;HTU21D;27024;54.068;12.116;2023-05-07T13:12:45;22.04;30.29
584;HTU21D;27024;54.068;12.116;2023-05-07T13:15:13;22.21;29.55
584;HTU21D;27024;54.068;12.116;2023-05-07T13:17:40;22.54;27.99
584;HTU21D;27024;54.068;12.116;2023-05-07T13:20:11;21.84;29.51
584;HTU21D;27024;54.068;12.116;2023-05-07T13:22:40;22.03;29.32
584;HTU21D;27024;54.068;12.116;2023-05-07T13:25:07;22.47;29.55
584;HTU21D;27024;54.068;12.116;2023-05-07T13:27:35;22.26;29.00
584;HTU21D;27024;54.068;12.116;2023-05-07T13:30:04;22.08;29.45
584;HTU21D;27024;54.068;12.116;2023-05-07T13:32:34;22.34;29.51
584;HTU21D;27024;54.068;12.116;2023-05-07T13:35:02;22.21;28.71
584;HTU21D;27024;54.068;12.116;2023-05-07T13:37:30;22.40;29.02
584;HTU21D;27024;54.068;12.116;2023-05-07T13:39:57;22.19;27.97
584;HTU21D;27024;54.068;12.116;2023-05-07T13:42:25;21.91;28.21
584;HTU21D;27024;54.068;12.116;2023-05-07T13:44:52;21.16;29.19
584;HTU21D;27024;54.068;12.116;2023-05-07T13:47:19;21.55;29.98
584;HTU21D;27024;54.068;12.116;2023-05-07T13:49:48;22.31;29.07
584;HTU21D;27024;54.068;12.116;2023-05-07T13:52:19;21.76;26.12
584;HTU21D;27024;54.068;12.116;2023-05-07T13:54:51;21.06;28.44
584;HTU21D;27024;54.068;12.116;2023-05-07T13:57:19;22.23;26.99
584;HTU21D;27024;54.068;12.116;2023-05-07T13:59:47;22.23;27.58
584;HTU21D;27024;54.068;12.116;2023-05-07T14:02:14;22.41;25.88
584;HTU21D;27024;54.068;12.116;2023-05-07T14:04:42;22.46;24.56
584;HTU21D;27024;54.068;12.116;2023-05-07T14:07:09;22.12;27.13
584;HTU21D;27024;54.068;12.116;2023-05-07T14:09:37;22.25;26.03
584;HTU21D;27024;54.068;12.116;2023-05-07T14:12:05;21.92;25.55
584;HTU21D;27024;54.068;12.116;2023-05-07T14:14:32;22.46;24.82
584;HTU21D;27024;54.068;12.116;2023-05-07T14:17:00;22.67;26.07
584;HTU21D;27024;54.068;12.116;2023-05-07T14:19:28;22.68;25.04
584;HTU21D;27024;54.068;12.116;2023-05-07T14:21:56;22.67;24.08
584;HTU21D;27024;54.068;12.116;2023-05-07T14:24:25;21.99;25.39
584;HTU21D;27024;54.068;12.116;2023-05-07T14:27:05;21.79;26.16
584;HTU21D;27024;54.068;12.116;2023-05-07T14:29:32;22.39;26.49
584;HTU21D;27024;54.068;12.116;2023-05-07T14:31:59;22.31;26.36
584;HTU21D;27024;54.068;12.116;2023-05-07T14:34:26;22.62;25.28
584;HTU21D;27024;54.068;12.116;2023-05-07T14:36:53;21.52;26.86
584;HTU21D;27024;54.068;12.116;2023-05-07T14:39:20;21.70;26.72
584;HTU21D;27024;54.068;12.116;2023-05-07T14:41:47;21.84;26.39
584;HTU21D;27024;54.068;12.116;2023-05-07T14:44:14;22.48;26.07
584;HTU21D;27024;54.068;12.116;2023-05-07T14:46:40;21.74;26.66
584;HTU21D;27024;54.068;12.116;2023-05-07T14:49:07;21.91;26.04
584;HTU21D;27024;54.068;12.116;2023-05-07T14:51:46;22.13;27.32
584;HTU21D;27024;54.068;12.116;2023-05-07T14:54:14;22.37;26.63
584;HTU21D;27024;54.068;12.116;2023-05-07T14:56:41;21.87;24.55
584;HTU21D;27024;54.068;12.116;2023-05-07T14:59:08;21.84;25.50
584;HTU21D;27024;54.068;12.116;2023-05-07T15:01:36;22.01;25.39
584;HTU21D;27024;54.068;12.116;2023-05-07T15:04:03;22.02;25.98
584;HTU21D;27024;54.068;12.116;2023-05-07T15:06:31;22.10;26.24
584;HTU21D;27024;54.068;12.116;2023-05-07T15:08:58;22.03;26.52
584;HTU21D;27024;54.068;12.116;2023-05-07T15:11:25;22.14;27.38
584;HTU21D;27024;54.068;12.116;2023-05-07T15:13:52;21.92;26.95
584;HTU21D;27024;54.068;12.116;2023-05-07T15:16:19;21.53;26.55
584;HTU21D;27024;54.068;12.116;2023-05-07T15:18:47;22.03;26.34
584;HTU21D;27024;54.068;12.116;2023-05-07T15:21:14;21.55;27.67
584;HTU21D;27024;54.068;12.116;2023-05-07T15:23:41;22.12;27.16
584;HTU21D;27024;54.068;12.116;2023-05-07T15:26:08;21.63;27.36
584;HTU21D;27024;54.068;12.116;2023-05-07T15:28:35;22.42;25.13
584;HTU21D;27024;54.068;12.116;2023-05-07T15:31:02;21.48;27.03
584;HTU21D;27024;54.068;12.116;2023-05-07T15:33:28;21.58;27.31
584;HTU21D;27024;54.068;12.116;2023-05-07T15:35:55;22.18;27.45
584;HTU21D;27024;54.068;12.116;2023-05-07T15:38:26;22.08;25.91
584;HTU21D;27024;54.068;12.116;2023-05-07T15:40:52;21.74;27.20
584;HTU21D;27024;54.068;12.116;2023-05-07T15:43:19;20.84;28.36
584;HTU21D;27024;54.068;12.116;2023-05-07T15:45:47;21.02;29.12
584;HTU21D;27024;54.068;12.116;2023-05-07T15:48:13;20.98;28.72
584;HTU21D;27024;54.068;12.116;2023-05-07T15:50:40;20.43;29.04
584;HTU21D;27024;54.068;12.116;2023-05-07T15:53:07;20.78;27.10
584;HTU21D;27024;54.068;12.116;2023-05-07T15:55:34;20.94;27.51
584;HTU21D;27024;54.068;12.116;2023-05-07T15:58:01;20.71;29.06
584;HTU21D;27024;54.068;12.116;2023-05-07T16:00:29;20.96;28.05